Weather reports worldwide

Advertisment
Rensjoen, Sweden (2031): temperature & dewpoint: 06.12.2019 16:00:00 - 12.12.2019 16:00:00 (CET)Rensjoen, Sweden (2031): wind speed & gusts: 06.12.2019 16:00:00 - 12.12.2019 16:00:00 (CET)Rensjoen, Sweden (2031): wind direction: 06.12.2019 16:00:00 - 12.12.2019 16:00:00 (CET)Rensjoen, Sweden (2031): visibility: 06.12.2019 16:00:00 - 12.12.2019 16:00:00 (CET)Rensjoen, Sweden (2031): precipitation: 06.12.2019 16:00:00 - 12.12.2019 16:00:00 (CET)
Date & Time tt [°C] td [°C] ff [km/h] ff [kn] fx [km/h] fx [kn] dd vv [km] rr [mm]
12.12.2019 16:00:00 -2,4 -5,4 16 9 41 22 S 50 0,0
12.12.2019 15:00:00 -2,1 -5,1 23 12 33 18 SSW 50 0,0
12.12.2019 14:00:00 -2,6 -5,1 16 9 28 15 S 50 0,0
12.12.2019 13:00:00 -2,6 -5,4 18 10 39 21 S 50 0,0
12.12.2019 12:00:00 -2,7 -5,5 26 14 40 21 S 50 0,0
12.12.2019 11:00:00 -2,9 -5,9 24 13 39 21 S 50 0,0
12.12.2019 10:00:00 -2,9 -5,5 26 14 40 22 SSE 50 0,0
12.12.2019 09:00:00 -3,5 -5,5 21 12 35 19 SSE 50 0,0
12.12.2019 08:00:00 -3,8 -5,8 23 12 40 21 SSE 50 0,0
12.12.2019 07:00:00 -4,7 -6,5 23 12 40 22 S 50 0,0
12.12.2019 06:00:00 -6,8 -7,7 24 13 38 20 SSE 50 0,0
12.12.2019 05:00:00 -9,1 -10,0 6 4 14 8 SSW 2,3 0,0
12.12.2019 04:00:00 -8,7 -10,0 6 4 20 11 SW 50 0,0
12.12.2019 03:00:00 -8,8 -10,4 10 5 19 11 WSW 50 0,0
12.12.2019 02:00:00 -4,1 -7,2 18 10 26 14 SE 50 0,0
12.12.2019 01:00:00 -7,7 -9,8 9 5 23 13 SE 50 0,0
12.12.2019 00:00:00 -3,4 -6,8 22 12 29 16 ESE 50 0,0
11.12.2019 23:00:00 -2,2 -6,6 12 6 27 15 ENE 50 0,0
11.12.2019 22:00:00 -3,7 -7,3 14 8 35 19 ESE 50 0,0
11.12.2019 21:00:00 -3,8 -7,2 10 5 30 16 ENE 50 0,0
11.12.2019 20:00:00 -3,6 -7,0 16 9 24 13 SSW 50 0,0
11.12.2019 19:00:00 -3,3 -6,6 10 5 28 15 S 50 0,0
11.12.2019 18:00:00 -3,2 -6,2 16 9 31 17 S 50 0,0
11.12.2019 17:00:00 -3,6 -5,8 13 7 23 13 SSW 50 0,0
11.12.2019 16:00:00 -3,4 -5,3 17 9 30 16 SSW 50 0,1
11.12.2019 15:00:00 -3,6 -4,7 20 11 29 16 S 2,0 0,3
11.12.2019 14:00:00 -3,7 -4,5 22 12 30 16 S 1,6 0,6
11.12.2019 13:00:00 -3,9 -4,6 21 11 29 16 S 1,1 0,7
11.12.2019 12:00:00 -4,9 -5,9 22 12 34 18 SSE 1,6 0,3
11.12.2019 11:00:00 -5,9 -7,0 25 13 35 19 SSE 1,7 0,2
11.12.2019 10:00:00 -8,0 -9,3 19 10 39 21 SE 1,7 0,2
11.12.2019 09:00:00 -8,7 -10,0 22 12 32 18 SSE 2,4 0,4
11.12.2019 08:00:00 -11,2 -12,7 8 5 21 12 SE 0,9 0,9
11.12.2019 07:00:00 -14,6 -16,4 9 5 23 13 SSW 0,3 0,5
11.12.2019 06:00:00 -14,7 -16,7 21 12 29 16 SSE 1,5 0,2
11.12.2019 05:00:00 -15,9 -17,8 9 5 21 11 SSW 1,3 0,2
11.12.2019 04:00:00 -15,2 -17,1 14 7 19 10 SSW 1,7 0,1
11.12.2019 03:00:00 -16,7 -18,6 13 7 21 11 SSW 2,4 0,0
11.12.2019 02:00:00 -17,6 -19,6 3 1 24 13 WNW 6 0,0
11.12.2019 01:00:00 -16,2 -18,3 11 6 25 13 S 50 0,0
11.12.2019 00:00:00 -16,6 -18,4 13 7 20 11 S 38 0,0
10.12.2019 23:00:00 -16,4 -18,6 14 8 19 10 S 50 0,0
10.12.2019 22:00:00 -17,2 -19,3 11 6 14 8 S 50 0,0
10.12.2019 21:00:00 -19,1 -21,3 3 2 10 5 S 50 0,0
10.12.2019 20:00:00 -20,9 -22,9 3 1 8 4 S 24 0,0
10.12.2019 19:00:00 -23,2 -25,7 5 3 9 5 SSW 18 0,0
10.12.2019 18:00:00 -19,1 -21,5 4 2 12 6 W 50 0,0
10.12.2019 17:00:00 -14,1 -17,1 6 3 13 7 ESE 50 0,0
10.12.2019 16:00:00 -18,7 -21,3 8 5 14 8 S 47 0,0
10.12.2019 15:00:00 -17,3 -19,8 2 1 9 5 S 50 0,0
10.12.2019 14:00:00 -16,3 -20,8 3 1 18 10 W 50 0,0
10.12.2019 13:00:00 -9,7 -15,0 8 4 16 9 SW 50 0,0
10.12.2019 12:00:00 -8,4 -14,6 12 6 24 13 WSW 50 0,0
10.12.2019 11:00:00 -10,8 -15,5 5 3 16 9 SSW 50 0,0
10.12.2019 10:00:00 -11,3 -15,3 5 3 14 8 NNE 50 0,0
10.12.2019 09:00:00 -11,6 -14,5 4 2 18 10 E 50 0,0
10.12.2019 08:00:00 -11,4 -14,0 7 4 11 6 NNE 50 0,0
10.12.2019 07:00:00 -10,2 -14,6 8 4 23 13 N 50 0,0
10.12.2019 06:00:00 -8,4 -13,1 18 10 33 18 NW 50 0,0
10.12.2019 05:00:00 -7,2 -9,9 17 9 33 18 NW 17 0,0
10.12.2019 04:00:00 -6,8 -9,8 18 10 34 18 NW 6 0,0
10.12.2019 03:00:00 -9,4 -13,0 0 0 28 15 N 50 0,0
10.12.2019 02:00:00 -7,7 -12,2 12 6 27 15 NW 50 0,0
10.12.2019 01:00:00 -8,3 -11,6 14 7 34 18 NW 50 0,0
10.12.2019 00:00:00 -7,3 -11,3 26 14 40 22 NNW 25 0,0
09.12.2019 23:00:00 -7,8 -11,1 19 11 35 19 NNW 30 0,0
09.12.2019 22:00:00 -7,3 -10,0 17 9 26 14 NNW 27 0,1
09.12.2019 21:00:00 -7,7 -9,5 15 8 23 13 NNW 1,3 0,1
09.12.2019 20:00:00 -24,0 -26,6 3 2 6 3 ENE 15 0,0
09.12.2019 19:00:00 -24,3 -27,3 0 0 3 1 N 33 0,0
09.12.2019 18:00:00 -23,1 -25,6 0 0 3 1 N 50 0,0
09.12.2019 17:00:00 -23,1 -25,6 0 0 3 2 N 38 0,0
09.12.2019 16:00:00 -22,5 -25,1 0 0 3 1 N 47 -
09.12.2019 15:00:00 -20,8 -23,2 0 0 2 1 N 10 0,0
09.12.2019 14:00:00 -18,2 -20,7 0 0 4 2 N 50 0,0
09.12.2019 13:00:00 -15,5 -17,4 0 0 5 3 N 50 0,0
09.12.2019 12:00:00 -15,1 -17,3 2 1 9 5 N 50 0,0
09.12.2019 11:00:00 -14,5 -16,5 3 2 5 3 NNE 50 0,0
09.12.2019 10:00:00 -11,8 -13,4 3 2 4 2 NNE 50 0,0
09.12.2019 09:00:00 -10,5 -12,0 0 0 8 4 N 47 0,0
09.12.2019 08:00:00 -9,3 -10,6 5 3 11 6 N 11 0,0
09.12.2019 07:00:00 -9,1 -10,4 4 2 11 6 N 4,3 0,1
09.12.2019 06:00:00 -8,9 -10,1 7 4 13 7 NNW 3,3 0,1
09.12.2019 05:00:00 -8,9 -10,1 6 3 11 6 N 2,3 0,3
09.12.2019 04:00:00 -8,8 -10,0 5 3 9 5 N 2,0 0,2
09.12.2019 03:00:00 -8,8 -10,0 5 3 9 5 N 1,9 0,3
09.12.2019 02:00:00 -8,6 -9,8 4 2 10 5 N 1,3 0,4
09.12.2019 01:00:00 -8,8 -10,1 3 2 11 6 N 10 0,0
09.12.2019 00:00:00 -9,0 -10,3 5 3 10 6 NNW 8 0,0
08.12.2019 23:00:00 -8,9 -10,1 4 2 10 6 N 2,5 0,0
08.12.2019 22:00:00 -9,0 -10,2 3 2 5 3 NNE 50 0,0
08.12.2019 21:00:00 -9,0 -10,2 0 0 5 3 N 28 -
08.12.2019 20:00:00 -8,5 -9,6 3 2 7 4 NNW 21 0,0
08.12.2019 19:00:00 -8,9 -10,1 3 2 4 2 NE 50 0,0
08.12.2019 18:00:00 -8,0 -9,1 3 2 4 2 NNE 50 0,1
08.12.2019 17:00:00 -7,2 -8,1 0 0 5 3 N 1,9 0,2
08.12.2019 16:00:00 -7,6 -8,5 0 0 3 2 N 1,4 0,1
08.12.2019 15:00:00 -7,9 -9,0 0 0 6 3 N 9 0,0
08.12.2019 14:00:00 -9,3 -10,5 0 0 1 1 N 16 0,0
08.12.2019 13:00:00 -12,2 -13,9 0 0 3 2 N 20 0,0
08.12.2019 12:00:00 -10,1 -11,4 3 2 6 4 NE 50 0,0
08.12.2019 11:00:00 -7,7 -8,8 4 2 8 4 N 50 0,0
08.12.2019 10:00:00 -6,3 -7,1 3 1 5 3 N 4,7 0,1
08.12.2019 09:00:00 -6,4 -7,3 0 0 6 4 N 1,4 0,2
08.12.2019 08:00:00 -6,2 -7,0 2 1 5 3 ENE 1,6 0,5
08.12.2019 07:00:00 -7,3 -8,1 0 0 3 1 N 1,1 0,2
08.12.2019 06:00:00 -8,8 -10,0 0 0 2 1 N 25 0,0
08.12.2019 05:00:00 -9,2 -10,4 0 0 5 3 N 42 0,0
08.12.2019 04:00:00 -8,8 -9,9 3 2 4 2 E 50 0,0
08.12.2019 03:00:00 -10,0 -11,3 0 0 1 1 N 1,6 0,2
08.12.2019 02:00:00 -9,8 -11,1 0 0 1 1 N 2,1 0,0
08.12.2019 01:00:00 -10,0 -11,3 0 0 4 2 N 0,7 0,3
08.12.2019 00:00:00 -10,7 -12,0 0 0 4 2 N 0,8 0,2
07.12.2019 23:00:00 -10,4 -11,7 3 1 4 2 N 1,7 0,4
07.12.2019 22:00:00 -11,0 -12,3 0 0 2 1 N 1,2 0,3
07.12.2019 21:00:00 -11,8 -13,2 0 0 3 2 N 4,6 0,0
07.12.2019 20:00:00 -11,9 -13,3 0 0 3 2 N 8 0,0
07.12.2019 19:00:00 -12,0 -13,4 0 0 3 2 N 10 0,0
07.12.2019 18:00:00 -11,6 -13,0 0 0 1 1 N 1,2 0,0
07.12.2019 17:00:00 -11,6 -13,0 0 0 2 1 N 0,9 0,0
07.12.2019 16:00:00 -11,4 -12,7 0 0 4 2 N 0,6 0,0
07.12.2019 15:00:00 -11,2 -12,7 2 1 4 2 S 1,0 0,0
07.12.2019 14:00:00 -11,2 -12,7 2 1 4 2 SSW 11 0,0
07.12.2019 13:00:00 -11,1 -12,4 3 1 5 3 S 14 0,0
07.12.2019 12:00:00 -11,2 -12,7 0 0 4 2 N 2,9 0,0
07.12.2019 11:00:00 -11,2 -12,5 3 1 4 2 S - -
07.12.2019 10:00:00 -11,2 -12,5 2 1 5 3 S - 0,0
07.12.2019 09:00:00 -11,3 -12,6 3 2 7 4 SSW - 0,0
07.12.2019 08:00:00 -11,3 -12,6 4 2 9 5 SSW 0,6 0,0
07.12.2019 07:00:00 -11,2 -12,5 4 2 10 6 S 0,9 0,0
07.12.2019 06:00:00 -11,1 -12,4 4 2 8 4 SSW 2,8 0,0
07.12.2019 05:00:00 -11,0 -12,3 4 2 6 3 S 2,8 0,0
07.12.2019 04:00:00 -10,9 -12,2 4 2 9 5 S 2,1 0,0
07.12.2019 03:00:00 -10,8 -12,1 5 3 9 5 SSW 3,6 -
07.12.2019 02:00:00 -10,4 -11,6 5 3 7 4 SSW 1,6 0,0
07.12.2019 01:00:00 -10,3 -11,5 4 2 6 4 SSW 13 0,1
07.12.2019 00:00:00 -10,1 -11,3 3 2 6 4 SSW 0,3 0,1
06.12.2019 23:00:00 -10,2 -11,1 5 3 8 4 SSW 0,4 0,0
06.12.2019 22:00:00 -11,0 -12,0 4 2 9 5 S 3,6 0,0
06.12.2019 21:00:00 -12,2 -13,2 8 4 10 6 S 34 0,0
06.12.2019 20:00:00 -14,5 -15,8 3 2 8 4 S 50 0,0
06.12.2019 19:00:00 -15,0 -17,0 3 2 8 4 W 20 -
06.12.2019 18:00:00 -14,4 -16,8 0 0 10 5 N 50 0,0
06.12.2019 17:00:00 -12,2 -13,8 0 0 10 5 N 50 0,0
06.12.2019 16:00:00 -14,5 -16,5 7 4 10 5 SSW 40 0,0

tt = temperature
td = dewpoint
ff = wind speed
fx = gusts
dd = wind direction
vv = visibility
rr = precipitation

Next stations